Time;durP1;ratioP1;P1;durP2;ratioP2;P2;SDS_P1;SDS_P2;PMS_P1;PMS_P2;Temp;Humidity;BMP_temperature;BMP_pressure;BME280_temperature;BME280_humidity;BME280_pressure;Samples;Min_cycle;Max_cycle;Signal;HPM_P1;HPM_P2
2022/03/14 00:00:43;;;;;;;;;;;-0.50;36.90;;;;;;6169832;23;20005;-80
2022/03/14 00:03:10;;;;;;;24.35;9.45;;;-0.60;37.00;;;;;;6174443;23;19907;-80
2022/03/14 00:05:36;;;;;;;20.95;9.10;;;-0.50;36.90;;;;;;6204094;23;20152;-80
2022/03/14 00:08:02;;;;;;;;;;;-0.50;36.90;;;;;;6184805;23;20013;-80
2022/03/14 00:10:28;;;;;;;17.17;6.60;;;-0.40;37.30;;;;;;6211491;23;19900;-80
2022/03/14 00:12:58;;;;;;;17.02;6.80;;;-0.40;37.20;;;;;;6185542;23;20005;-81
2022/03/14 00:15:30;;;;;;;15.20;7.35;;;-0.40;37.10;;;;;;6213166;23;20036;-81
2022/03/14 00:17:57;;;;;;;13.77;6.30;;;-0.40;37.20;;;;;;6209889;23;20013;-80
2022/03/14 00:20:23;;;;;;;16.25;7.55;;;-0.40;37.00;;;;;;6212550;23;20069;-80
2022/03/14 00:22:49;;;;;;;;;;;-0.50;36.80;;;;;;6209749;23;20020;-80
2022/03/14 00:25:15;;;;;;;12.05;6.18;;;-0.30;37.00;;;;;;6198691;23;19987;-78
2022/03/14 00:27:41;;;;;;;;;;;-0.40;36.90;;;;;;6201443;23;20013;-80
2022/03/14 00:30:10;;;;;;;17.17;8.18;;;-0.50;37.10;;;;;;6200633;23;19908;-79
2022/03/14 00:32:36;;;;;;;18.08;7.45;;;-0.50;37.20;;;;;;6199104;23;20001;-80
2022/03/14 00:35:07;;;;;;;;;;;-0.50;37.10;;;;;;6197991;23;20074;-80
2022/03/14 00:37:33;;;;;;;15.85;6.75;;;-0.40;37.30;;;;;;6198349;23;19925;-79
2022/03/14 00:39:59;;;;;;;16.77;7.78;;;-0.50;37.30;;;;;;6201539;23;20005;-80
2022/03/14 00:42:25;;;;;;;;;;;-0.50;37.40;;;;;;6198707;23;20099;-80
2022/03/14 00:44:51;;;;;;;13.05;5.82;;;-0.50;37.40;;;;;;6201260;23;19907;-79
2022/03/14 00:47:17;;;;;;;14.45;5.97;;;-0.60;37.60;;;;;;6202026;23;20005;-79
2022/03/14 00:49:43;;;;;;;;;;;-0.60;37.60;;;;;;6204030;23;20008;-80
2022/03/14 00:52:10;;;;;;;14.15;4.97;;;-0.70;37.90;;;;;;6173906;23;19900;-80
2022/03/14 00:54:36;;;;;;;13.13;4.38;;;-0.70;37.90;;;;;;6173787;23;20336;-79
2022/03/14 00:57:02;;;;;;;;;;;-0.60;37.40;;;;;;6177944;23;20005;-79
2022/03/14 00:59:27;;;;;;;16.65;5.32;;;-0.50;37.20;;;;;;6199558;23;19920;-79
2022/03/14 01:01:54;;;;;;;9.93;5.63;;;-0.40;36.90;;;;;;6202872;23;20060;-79
2022/03/14 01:04:20;;;;;;;14.32;5.95;;;-0.40;37.00;;;;;;6201006;23;20016;-79
2022/03/14 01:06:46;;;;;;;;;;;-0.40;37.10;;;;;;6174941;23;20005;-80
2022/03/14 01:09:14;;;;;;;13.82;5.07;;;-0.40;37.80;;;;;;6201625;23;19923;-80
2022/03/14 01:11:41;;;;;;;12.65;5.50;;;-0.50;37.20;;;;;;6200782;23;20001;-80
2022/03/14 01:14:06;;;;;;;13.73;6.40;;;-0.50;37.20;;;;;;6206001;23;20029;-80
2022/03/14 01:16:32;;;;;;;;;;;-0.40;37.10;;;;;;6206938;23;20025;-81
2022/03/14 01:18:58;;;;;;;13.25;5.80;;;-0.40;37.10;;;;;;6206981;23;19900;-80
2022/03/14 01:21:24;;;;;;;;;;;-0.40;37.20;;;;;;6210667;23;20008;-80
2022/03/14 01:23:50;;;;;;;13.32;6.57;;;-0.40;37.20;;;;;;6206051;23;19904;-80
2022/03/14 01:26:17;;;;;;;19.10;7.13;;;-0.40;37.30;;;;;;6210909;23;19988;-79
2022/03/14 01:28:43;;;;;;;14.77;6.70;;;-0.40;37.30;;;;;;6213026;23;20017;-81
2022/03/14 01:31:09;;;;;;;16.70;7.95;;;-0.40;37.40;;;;;;6212161;23;19985;-82
2022/03/14 01:33:34;;;;;;;;;;;-0.40;37.50;;;;;;6213454;23;20032;-81
2022/03/14 01:36:00;;;;;;;18.63;7.95;;;-0.50;37.40;;;;;;6212977;23;19955;-81
2022/03/14 01:38:26;;;;;;;;;;;-0.50;37.40;;;;;;6213360;23;20008;-80
2022/03/14 01:40:52;;;;;;;18.42;8.23;;;-0.50;37.70;;;;;;6213360;23;19975;-81
2022/03/14 01:43:17;;;;;;;;;;;-0.60;37.90;;;;;;6187698;23;20005;-81
2022/03/14 01:45:46;;;;;;;13.38;5.80;;;-0.60;38.20;;;;;;6211554;23;19938;-79
2022/03/14 01:48:12;;;;;;;16.80;7.18;;;-0.70;38.40;;;;;;6212599;23;20044;-81
2022/03/14 01:50:38;;;;;;;14.25;6.80;;;-0.70;38.50;;;;;;6210394;23;20045;-80
2022/03/14 01:53:03;;;;;;;;;;;-0.70;38.70;;;;;;6207998;23;19985;-81
2022/03/14 01:55:29;;;;;;;14.25;6.47;;;-0.70;38.80;;;;;;6182383;23;19911;-79
2022/03/14 01:57:55;;;;;;;;;;;-0.80;38.80;;;;;;6207981;23;20005;-80
2022/03/14 02:00:21;;;;;;;17.08;6.65;;;-0.80;38.80;;;;;;6183671;23;19884;-78
2022/03/14 02:02:48;;;;;;;;;;;-0.80;39.00;;;;;;6182237;23;19989;-79
2022/03/14 02:05:15;;;;;;;16.50;5.22;;;-0.80;39.10;;;;;;6211730;23;19961;-80
2022/03/14 02:07:40;;;;;;;13.15;6.13;;;-0.80;39.10;;;;;;6211488;23;20058;-81
2022/03/14 02:10:07;;;;;;;;;;;-0.90;38.90;;;;;;6212823;23;19985;-80
2022/03/14 02:12:32;;;;;;;17.23;7.20;;;-0.90;39.10;;;;;;6211720;23;19904;-80
2022/03/14 02:29:32;;;;;;;19.98;8.65;;;-1.20;40.10;;;;;;6184624;23;20021;-79
2022/03/14 02:31:57;;;;;;;18.05;8.35;;;-1.20;40.30;;;;;;6186189;23;19993;-79
2022/03/14 02:34:23;;;;;;;;;;;-1.30;40.20;;;;;;6213074;23;20025;-80
2022/03/14 02:36:49;;;;;;;20.05;9.35;;;-1.20;40.30;;;;;;6187583;23;19904;-77
2022/03/14 02:39:15;;;;;;;;;;;-1.20;41.00;;;;;;6212270;23;20024;-78
2022/03/14 02:41:41;;;;;;;15.95;7.63;;;-1.10;40.40;;;;;;6210919;23;19952;-78
2022/03/14 02:44:08;;;;;;;18.48;6.68;;;-1.10;40.30;;;;;;6185847;23;19989;-78
2022/03/14 02:46:36;;;;;;;15.85;6.47;;;-1.00;40.10;;;;;;6211815;23;20435;-79
2022/03/14 02:49:01;;;;;;;19.33;7.20;;;-1.00;40.10;;;;;;6210456;23;20013;-78
2022/03/14 02:51:27;;;;;;;;;;;-1.00;40.20;;;;;;6212204;23;20012;-78
2022/03/14 02:53:57;;;;;;;14.30;6.78;;;-1.10;40.40;;;;;;6210406;23;19911;-78
2022/03/14 02:56:23;;;;;;;16.05;7.32;;;-1.10;40.30;;;;;;6210245;23;19990;-78
2022/03/14 02:58:51;;;;;;;14.95;6.93;;;-1.10;40.30;;;;;;6210614;23;19986;-77
2022/03/14 03:01:18;;;;;;;15.88;5.97;;;-1.10;40.30;;;;;;6209591;23;20037;-79
2022/03/14 03:03:44;;;;;;;16.00;6.20;;;-1.10;40.30;;;;;;6210887;23;20064;-78
2022/03/14 03:06:11;;;;;;;;;;;-1.10;40.20;;;;;;6210583;23;20005;-77
2022/03/14 03:08:37;;;;;;;;;;;-1.10;40.20;;;;;;6212068;23;19916;-80
2022/03/14 03:11:08;;;;;;;18.55;6.68;;;-1.00;40.20;;;;;;6184420;23;19904;-79
2022/03/14 03:15:59;;;;;;;;;;;-1.10;40.20;;;;;;6208357;23;20028;-80
2022/03/14 03:18:25;;;;;;;12.13;5.70;;;-1.10;40.20;;;;;;6207190;23;19911;-79
2022/03/14 03:20:51;;;;;;;12.77;6.55;;;-1.00;40.20;;;;;;6208623;23;20005;-79
2022/03/14 03:23:18;;;;;;;;;;;-1.00;40.00;;;;;;6207051;23;20508;-81
2022/03/14 03:25:44;;;;;;;12.32;6.38;;;-0.70;39.90;;;;;;6181401;23;19911;-80
2022/03/14 03:28:09;;;;;;;;;;;-0.80;39.60;;;;;;6207473;23;19997;-79
2022/03/14 03:30:35;;;;;;;30.17;10.75;;;-0.90;39.60;;;;;;6208674;23;19907;-80
2022/03/14 03:33:01;;;;;;;;;;;-1.00;40.00;;;;;;6182234;23;20036;-80
2022/03/14 03:35:27;;;;;;;18.67;8.50;;;-1.00;40.20;;;;;;6209371;23;19944;-79
2022/03/14 03:37:52;;;;;;;;;;;-1.00;40.20;;;;;;6209643;23;20012;-79
2022/03/14 03:40:18;;;;;;;22.35;10.10;;;-1.10;40.10;;;;;;6208970;23;19888;-80
2022/03/14 03:42:44;;;;;;;23.85;9.43;;;-1.10;40.20;;;;;;6210361;23;20025;-80
2022/03/14 03:45:10;;;;;;;;;;;-1.10;40.40;;;;;;6183766;23;20021;-80
2022/03/14 03:47:36;;;;;;;17.05;7.65;;;-1.20;40.50;;;;;;6208551;23;19912;-79
2022/03/14 03:50:01;;;;;;;;;;;-1.20;40.70;;;;;;6210394;23;20102;-81
2022/03/14 03:52:27;;;;;;;27.15;12.45;;;-1.20;40.70;;;;;;6184743;23;19896;-80
2022/03/14 03:54:53;;;;;;;26.75;10.15;;;-1.00;40.90;;;;;;6209065;23;20005;-78
2022/03/14 03:57:19;;;;;;;;;;;-1.10;40.90;;;;;;6209775;23;20001;-80
2022/03/14 03:59:45;;;;;;;21.63;10.68;;;-1.00;40.80;;;;;;6208902;23;19907;-80
2022/03/14 04:02:11;;;;;;;;;;;-1.00;40.70;;;;;;6210124;23;19997;-80
2022/03/14 04:04:37;;;;;;;21.63;9.68;;;-1.10;40.80;;;;;;6182418;23;19896;-80
2022/03/14 04:07:04;;;;;;;;;;;-1.20;40.90;;;;;;6183765;23;20013;-80
2022/03/14 04:09:30;;;;;;;18.83;8.23;;;-1.30;41.10;;;;;;6184575;23;19884;-80
2022/03/14 04:11:56;;;;;;;;;;;-1.30;41.50;;;;;;6210881;23;19985;-80
2022/03/14 04:14:22;;;;;;;22.85;11.60;;;-1.40;41.60;;;;;;6183302;23;19923;-80
2022/03/14 04:16:47;;;;;;;;;;;-1.40;42.10;;;;;;6209800;23;20017;-80
2022/03/14 04:19:16;;;;;;;21.95;9.38;;;-1.50;42.20;;;;;;6210037;23;19907;-81
2022/03/14 04:21:45;;;;;;;21.15;9.65;;;-1.50;42.50;;;;;;6208761;23;20012;-80
2022/03/14 04:24:10;;;;;;;21.85;9.90;;;-1.70;42.40;;;;;;6208873;23;20001;-80
2022/03/14 04:26:38;;;;;;;;;;;-1.70;42.70;;;;;;6209221;23;20020;-79
2022/03/14 04:29:04;;;;;;;19.10;8.52;;;-1.70;43.10;;;;;;6183692;23;19912;-80
2022/03/14 04:31:29;;;;;;;;;;;-1.80;43.00;;;;;;6184533;23;20033;-80
2022/03/14 04:33:57;;;;;;;19.00;8.70;;;-1.80;43.10;;;;;;6209767;23;19907;-81
2022/03/14 04:36:23;;;;;;;19.98;8.55;;;-1.70;43.10;;;;;;6208901;23;19986;-80
2022/03/14 04:38:49;;;;;;;15.90;8.30;;;-1.60;43.10;;;;;;6208994;23;19988;-80
2022/03/14 04:41:15;;;;;;;;;;;-1.60;43.10;;;;;;6210113;23;20005;-80
2022/03/14 04:43:41;;;;;;;19.03;9.03;;;-1.50;43.10;;;;;;6209177;23;19901;-79
2022/03/14 04:46:07;;;;;;;;;;;-1.70;43.10;;;;;;6211772;23;20016;-80
2022/03/14 04:48:33;;;;;;;22.48;9.23;;;-1.70;43.20;;;;;;6208683;23;19915;-78
2022/03/14 04:50:59;;;;;;;;;;;-1.70;43.50;;;;;;6183236;23;20065;-80
2022/03/14 04:53:25;;;;;;;39.15;12.23;;;-1.80;44.00;;;;;;6208930;23;19974;-80
2022/03/14 04:55:51;;;;;;;33.00;13.35;;;-1.80;44.00;;;;;;6182541;23;20013;-80
2022/03/14 04:58:17;;;;;;;31.92;15.30;;;-1.70;43.90;;;;;;6208208;23;20048;-79
2022/03/14 05:00:43;;;;;;;33.08;14.35;;;-1.70;43.80;;;;;;6183197;23;20009;-81
2022/03/14 05:03:09;;;;;;;;;;;-1.70;43.60;;;;;;6210469;23;19988;-79
2022/03/14 05:05:35;;;;;;;35.05;15.85;;;-1.70;43.50;;;;;;6212298;23;19905;-80
2022/03/14 05:08:02;;;;;;;32.83;14.50;;;-1.60;43.50;;;;;;6208942;23;20036;-80
2022/03/14 05:10:28;;;;;;;27.90;14.07;;;-1.60;43.50;;;;;;6183371;23;20001;-80
2022/03/14 05:12:54;;;;;;;24.55;12.50;;;-1.50;43.40;;;;;;6182567;23;19997;-79
2022/03/14 05:15:20;;;;;;;;;;;-1.50;43.30;;;;;;6207734;23;20028;-80
2022/03/14 05:17:47;;;;;;;26.40;11.93;;;-1.50;43.10;;;;;;6182509;23;19891;-79
2022/03/14 05:20:14;;;;;;;30.83;14.88;;;-1.40;43.20;;;;;;6208168;23;20005;-80
2022/03/14 05:22:48;;;;;;;31.75;14.10;;;-1.40;43.50;;;;;;6182314;23;20065;-80
2022/03/14 05:25:16;;;;;;;29.42;14.35;;;-1.40;43.50;;;;;;6182354;23;19989;-79
2022/03/14 05:27:42;;;;;;;26.75;13.27;;;-1.40;43.50;;;;;;6207691;23;20005;-80
2022/03/14 05:30:08;;;;;;;;;;;-1.40;43.60;;;;;;6208991;23;20012;-81
2022/03/14 05:32:39;;;;;;;31.02;13.05;;;-1.40;43.90;;;;;;6208472;23;19953;-80
2022/03/14 05:35:06;;;;;;;24.05;11.75;;;-1.40;43.90;;;;;;6208121;23;19981;-79
2022/03/14 05:37:32;;;;;;;35.97;15.32;;;-1.30;43.90;;;;;;6209019;23;20001;-80
2022/03/14 05:39:58;;;;;;;;;;;-1.20;44.00;;;;;;6181993;23;20001;-80
2022/03/14 05:42:25;;;;;;;32.10;12.88;;;-1.10;44.20;;;;;;6207101;23;19940;-80
2022/03/14 05:44:52;;;;;;;28.05;12.85;;;-1.10;43.90;;;;;;6180014;23;20049;-79
2022/03/14 05:47:19;;;;;;;24.88;11.50;;;-0.90;43.70;;;;;;6179153;23;20009;-79
2022/03/14 05:49:45;;;;;;;22.15;10.45;;;-0.80;43.60;;;;;;6204824;23;20016;-79
2022/03/14 05:52:11;;;;;;;19.10;9.60;;;-0.70;43.30;;;;;;6180200;23;20008;-80
2022/03/14 05:54:38;;;;;;;;;;;-0.60;43.00;;;;;;6206696;23;20001;-80
2022/03/14 05:57:04;;;;;;;26.45;13.20;;;-0.40;42.90;;;;;;6205723;23;19915;-79
2022/03/14 05:59:29;;;;;;;;;;;-0.20;43.00;;;;;;6205777;23;19997;-77
2022/03/14 06:01:55;;;;;;;38.40;17.38;;;0.10;43.70;;;;;;6177772;23;19952;-78
2022/03/14 06:04:21;;;;;;;;;;;0.60;42.40;;;;;;6206494;23;20016;-79
2022/03/14 06:06:47;;;;;;;44.17;21.05;;;1.10;41.70;;;;;;6182963;23;19978;-80
2022/03/14 06:09:13;;;;;;;;;;;1.50;40.70;;;;;;6208048;23;19988;-80
2022/03/14 06:11:39;;;;;;;49.15;23.85;;;1.90;39.70;;;;;;6184469;23;19884;-81
2022/03/14 06:14:05;;;;;;;;;;;2.30;39.10;;;;;;6210719;23;20100;-80
2022/03/14 06:16:31;;;;;;;39.33;20.70;;;2.70;38.50;;;;;;6183215;23;19916;-81
2022/03/14 06:18:57;;;;;;;43.95;19.42;;;3.20;37.90;;;;;;6209913;23;20004;-79
2022/03/14 06:21:23;;;;;;;;;;;3.70;37.30;;;;;;6185026;23;19993;-78
2022/03/14 06:23:49;;;;;;;40.50;19.52;;;4.10;36.40;;;;;;6184160;23;19904;-79
2022/03/14 06:26:15;;;;;;;40.67;22.08;;;4.50;35.50;;;;;;6209352;23;20072;-78
2022/03/14 06:28:41;;;;;;;73.45;28.08;;;5.10;34.80;;;;;;6184244;23;20005;-80
2022/03/14 06:31:09;;;;;;;52.28;29.35;;;5.60;33.70;;;;;;6211301;23;20127;-79
2022/03/14 06:33:36;;;;;;;56.05;32.25;;;6.30;32.60;;;;;;6211906;23;20049;-78
2022/03/14 06:36:02;;;;;;;68.80;36.30;;;7.00;31.40;;;;;;6185168;23;19989;-79
2022/03/14 06:38:27;;;;;;;;;;;7.70;29.90;;;;;;6186849;23;20023;-84
2022/03/14 06:40:54;;;;;;;58.67;30.77;;;8.40;28.90;;;;;;6180091;23;20116;-83
2022/03/14 06:43:22;;;;;;;52.53;29.55;;;9.10;28.50;;;;;;6180609;23;20011;-83
2022/03/14 06:45:48;;;;;;;38.90;21.90;;;10.00;26.80;;;;;;6180337;23;20008;-83
2022/03/14 06:48:14;;;;;;;;;;;10.80;25.90;;;;;;6180808;23;20021;-86
2022/03/14 06:50:39;;;;;;;25.70;15.02;;;11.70;23.70;;;;;;6154071;23;20008;-85
2022/03/14 06:53:05;;;;;;;;;;;12.40;21.20;;;;;;6154195;23;20048;-84
2022/03/14 06:55:31;;;;;;;28.05;17.98;;;12.90;21.50;;;;;;6180213;23;19904;-82
2022/03/14 06:57:57;;;;;;;;;;;13.50;21.10;;;;;;6180992;23;20439;-82
2022/03/14 07:00:23;;;;;;;12.10;7.35;;;14.00;19.60;;;;;;6181100;23;19900;-81
2022/03/14 07:02:49;;;;;;;16.17;7.63;;;14.60;18.70;;;;;;6182254;23;20074;-80
2022/03/14 07:05:17;;;;;;;;;;;14.90;18.60;;;;;;6182934;23;20501;-81
2022/03/14 07:07:45;;;;;;;14.25;8.27;;;15.30;18.00;;;;;;6182104;23;19908;-84
2022/03/14 07:10:13;;;;;;;15.50;9.50;;;15.40;18.20;;;;;;6182140;23;20075;-84
2022/03/14 07:12:45;;;;;;;12.30;7.70;;;15.90;17.80;;;;;;6181996;23;20009;-83
2022/03/14 07:15:21;;;;;;;15.20;9.38;;;16.20;17.30;;;;;;6155346;23;20063;-84
2022/03/14 07:17:47;;;;;;;17.67;10.05;;;16.60;17.10;;;;;;6181672;23;20402;-83
2022/03/14 07:20:13;;;;;;;18.92;12.13;;;16.90;17.30;;;;;;6181806;23;20000;-83
2022/03/14 07:22:51;;;;;;;26.92;13.82;;;17.20;17.10;;;;;;6181765;23;20009;-82
2022/03/14 07:25:21;;;;;;;23.55;15.52;;;17.50;16.40;;;;;;6182159;23;20433;-80
2022/03/14 07:27:47;;;;;;;27.77;15.45;;;17.80;16.10;;;;;;6181897;23;20070;-82
2022/03/14 07:30:14;;;;;;;18.38;10.25;;;17.90;15.70;;;;;;6181909;23;20428;-82
2022/03/14 07:32:39;;;;;;;11.15;6.25;;;17.90;15.10;;;;;;6182073;23;20063;-82
2022/03/14 07:35:05;;;;;;;11.02;6.85;;;18.00;14.60;;;;;;6181624;23;20001;-83
2022/03/14 07:37:31;;;;;;;9.95;6.85;;;18.00;14.00;;;;;;6181793;23;20004;-83
2022/03/14 07:39:56;;;;;;;22.83;6.88;;;17.80;14.60;;;;;;6181278;23;20055;-84
2022/03/14 07:42:22;;;;;;;11.82;7.10;;;18.10;15.00;;;;;;6181983;23;20328;-83
2022/03/14 07:44:48;;;;;;;15.90;9.23;;;18.60;14.70;;;;;;6181718;23;20076;-83
2022/03/14 07:47:14;;;;;;;14.52;8.13;;;18.80;14.20;;;;;;6155253;23;20116;-82
2022/03/14 07:49:39;;;;;;;10.00;6.00;;;19.40;14.00;;;;;;6181674;23;20403;-82
2022/03/14 07:52:06;;;;;;;11.00;6.18;;;19.50;13.10;;;;;;6181490;23;20028;-83
2022/03/14 07:54:32;;;;;;;10.55;6.05;;;18.60;13.00;;;;;;6182159;23;20008;-83
2022/03/14 07:56:58;;;;;;;10.48;5.88;;;18.20;13.40;;;;;;6155243;23;20612;-83
2022/03/14 07:59:24;;;;;;;8.55;5.65;;;18.20;14.30;;;;;;6181308;23;20019;-83
2022/03/14 08:01:49;;;;;;;11.98;4.75;;;18.50;13.50;;;;;;6181515;23;20081;-83
2022/03/14 08:04:15;;;;;;;13.32;6.28;;;18.60;13.00;;;;;;6181222;23;20009;-83
2022/03/14 08:06:43;;;;;;;9.73;5.82;;;18.40;13.60;;;;;;6155087;23;20049;-82
2022/03/14 08:09:09;;;;;;;16.00;6.90;;;18.50;13.70;;;;;;6181489;23;20017;-82
2022/03/14 08:11:38;;;;;;;8.73;5.65;;;18.70;13.10;;;;;;6181008;23;20422;-83
2022/03/14 08:14:04;;;;;;;13.18;5.95;;;18.50;13.50;;;;;;6154538;23;20390;-83
2022/03/14 08:16:29;;;;;;;9.48;5.80;;;18.50;13.60;;;;;;6181020;23;20458;-82
2022/03/14 08:18:55;;;;;;;9.35;5.68;;;18.70;13.90;;;;;;6154901;23;20005;-83
2022/03/14 08:21:21;;;;;;;10.63;7.03;;;18.90;13.40;;;;;;6154869;23;20005;-82
2022/03/14 08:23:47;;;;;;;10.40;6.00;;;18.80;13.40;;;;;;6155123;23;20005;-82
2022/03/14 08:26:13;;;;;;;11.90;5.90;;;18.90;13.40;;;;;;6180946;23;20020;-83
2022/03/14 08:28:41;;;;;;;9.88;5.95;;;18.60;13.50;;;;;;6181470;23;20031;-83
2022/03/14 08:31:06;;;;;;;11.02;6.88;;;18.30;13.20;;;;;;6181530;23;20008;-81
2022/03/14 08:33:33;;;;;;;21.45;13.75;;;17.80;13.90;;;;;;6155052;23;20009;-83
2022/03/14 08:36:01;;;;;;;9.00;6.30;;;17.20;14.50;;;;;;6154743;23;20482;-84
2022/03/14 08:38:27;;;;;;;13.10;6.57;;;17.70;15.00;;;;;;6181341;23;20001;-83
2022/03/14 08:40:53;;;;;;;8.63;5.68;;;18.20;14.70;;;;;;6181273;23;20040;-81
2022/03/14 08:43:19;;;;;;;8.85;5.72;;;18.80;14.20;;;;;;6181325;23;20005;-82
2022/03/14 08:45:45;;;;;;;10.80;6.40;;;18.90;14.10;;;;;;6181352;23;20458;-82
2022/03/14 08:48:12;;;;;;;9.75;6.43;;;19.00;14.00;;;;;;6181047;23;20021;-82
2022/03/14 08:50:38;;;;;;;9.93;6.20;;;19.20;14.10;;;;;;6181251;23;19997;-82
2022/03/14 08:53:04;;;;;;;17.85;7.20;;;19.40;14.00;;;;;;6154544;23;20005;-81
2022/03/14 08:55:30;;;;;;;11.15;7.30;;;19.70;13.50;;;;;;6181066;23;20012;-82
2022/03/14 08:57:56;;;;;;;15.40;6.70;;;19.80;14.00;;;;;;6154608;23;20722;-81
2022/03/14 09:00:24;;;;;;;12.15;6.90;;;19.90;13.60;;;;;;6181119;23;20005;-82
2022/03/14 09:02:50;;;;;;;10.60;6.47;;;19.70;13.60;;;;;;6181008;23;20001;-82
2022/03/14 09:05:17;;;;;;;8.27;5.95;;;19.80;13.70;;;;;;6154572;23;20351;-82
2022/03/14 09:07:43;;;;;;;9.25;6.28;;;20.00;14.40;;;;;;6180747;23;20338;-82
2022/03/14 09:10:13;;;;;;;15.43;7.57;;;20.00;13.60;;;;;;6154469;23;20011;-82
2022/03/14 09:12:42;;;;;;;14.95;8.35;;;19.80;13.70;;;;;;6180789;23;20059;-82
2022/03/14 09:15:10;;;;;;;12.15;8.20;;;19.60;13.40;;;;;;6180831;23;20028;-82
2022/03/14 09:17:51;;;;;;;17.38;7.57;;;19.80;13.80;;;;;;6180914;23;20028;-81
2022/03/14 09:20:19;;;;;;;12.10;7.38;;;19.90;14.20;;;;;;6180890;23;20435;-82
2022/03/14 09:22:45;;;;;;;10.52;7.38;;;20.20;13.80;;;;;;6180812;23;20132;-83
2022/03/14 09:25:15;;;;;;;14.30;7.05;;;20.10;13.50;;;;;;6180621;23;20012;-82
2022/03/14 09:27:42;;;;;;;18.10;8.10;;;20.10;13.40;;;;;;6154157;23;20020;-82
2022/03/14 09:30:09;;;;;;;15.05;7.80;;;19.90;13.80;;;;;;6179115;23;20028;-82
2022/03/14 09:32:35;;;;;;;13.07;8.02;;;19.70;13.90;;;;;;6180888;23;20001;-81
2022/03/14 09:35:03;;;;;;;11.07;7.18;;;19.70;13.90;;;;;;6180611;23;20004;-81
2022/03/14 09:37:29;;;;;;;10.50;7.43;;;20.10;13.80;;;;;;6154008;23;20008;-82
2022/03/14 09:39:56;;;;;;;17.25;9.15;;;19.90;13.70;;;;;;6180693;23;20055;-83
2022/03/14 09:42:23;;;;;;;20.35;13.70;;;19.90;13.90;;;;;;6154270;23;20077;-83
2022/03/14 09:44:53;;;;;;;17.70;7.13;;;20.00;13.50;;;;;;6180729;23;20009;-82
2022/03/14 09:47:23;;;;;;;12.27;7.55;;;20.10;13.50;;;;;;6154065;23;20013;-81
2022/03/14 09:49:52;;;;;;;12.30;6.63;;;19.80;13.40;;;;;;6154173;23;20616;-82
2022/03/14 09:52:18;;;;;;;13.35;7.03;;;19.50;14.00;;;;;;6180126;23;20005;-83
2022/03/14 09:54:45;;;;;;;16.17;6.72;;;19.50;13.80;;;;;;6154385;23;20009;-80
2022/03/14 09:57:11;;;;;;;14.10;7.20;;;19.50;14.10;;;;;;6180841;23;20004;-79
2022/03/14 09:59:37;;;;;;;16.92;7.97;;;19.80;14.10;;;;;;6180377;23;20013;-79
2022/03/14 10:02:04;;;;;;;16.85;8.20;;;20.10;14.00;;;;;;6180536;23;20032;-80
2022/03/14 10:04:30;;;;;;;13.05;7.35;;;20.20;14.20;;;;;;6180756;23;20005;-81
2022/03/14 10:06:55;;;;;;;12.93;7.75;;;19.70;13.50;;;;;;6180486;23;20028;-80
2022/03/14 10:09:21;;;;;;;10.27;7.30;;;19.70;13.90;;;;;;6180549;23;20004;-80
2022/03/14 10:11:46;;;;;;;13.25;7.95;;;19.90;14.20;;;;;;6153769;23;20008;-80
2022/03/14 10:14:17;;;;;;;11.77;7.85;;;19.90;14.10;;;;;;6154003;23;20004;-80
2022/03/14 10:16:44;;;;;;;11.35;8.45;;;20.10;13.80;;;;;;6180411;23;20092;-80
2022/03/14 10:19:10;;;;;;;12.48;7.13;;;19.80;13.70;;;;;;6180586;23;20001;-80
2022/03/14 10:21:42;;;;;;;10.40;6.75;;;19.80;13.80;;;;;;6180166;23;20320;-80
2022/03/14 10:24:13;;;;;;;16.02;7.55;;;19.70;13.40;;;;;;6180129;23;20439;-80
2022/03/14 10:26:43;;;;;;;12.00;7.78;;;19.70;13.80;;;;;;6179847;23;20013;-82
2022/03/14 10:29:16;;;;;;;10.25;7.90;;;19.90;14.10;;;;;;6153632;23;20066;-80
2022/03/14 10:31:47;;;;;;;13.18;7.38;;;20.00;13.90;;;;;;6180506;23;20020;-81
2022/03/14 10:34:18;;;;;;;12.57;7.50;;;19.90;13.90;;;;;;6153862;23;20746;-82
2022/03/14 10:36:48;;;;;;;12.68;7.47;;;20.10;13.80;;;;;;6153887;23;20358;-84
2022/03/14 10:39:25;;;;;;;12.35;8.10;;;19.50;13.40;;;;;;6180594;23;20005;-86
2022/03/14 10:42:13;;;;;;;14.50;7.80;;;18.20;14.20;;;;;;6154568;23;20009;-87
2022/03/14 10:44:41;;;;;;;17.33;8.57;;;17.10;15.40;;;;;;6155009;23;20034;-82
2022/03/14 10:47:10;;;;;;;12.82;6.72;;;15.80;15.90;;;;;;6210157;23;20009;-79
2022/03/14 10:49:38;;;;;;;12.93;8.10;;;15.00;16.60;;;;;;6187664;23;20004;-78
2022/03/14 10:52:13;;;;;;;18.15;8.25;;;14.60;17.40;;;;;;6187504;23;20020;-77
2022/03/14 10:54:40;;;;;;;12.23;6.95;;;14.30;17.70;;;;;;6213198;23;20013;-79
2022/03/14 10:57:29;;;;;;;12.63;6.93;;;14.00;18.10;;;;;;6213250;23;19981;-78
2022/03/14 10:59:56;;;;;;;10.88;6.78;;;13.60;18.00;;;;;;6212138;23;19986;-79
2022/03/14 11:02:25;;;;;;;12.23;6.93;;;13.30;18.60;;;;;;6211664;23;19985;-78
2022/03/14 11:04:56;;;;;;;12.73;6.70;;;13.10;18.70;;;;;;6186430;23;19985;-79
2022/03/14 11:07:35;;;;;;;10.25;6.45;;;12.90;19.00;;;;;;6185840;23;20013;-79
2022/03/14 11:10:04;;;;;;;10.32;6.40;;;12.80;19.20;;;;;;6186524;23;20036;-80
2022/03/14 11:38:03;;;;;;;10.27;6.40;;;12.00;21.10;;;;;;6182278;23;20024;-78
2022/03/14 11:40:30;;;;;;;12.82;7.57;;;12.10;21.10;;;;;;6212707;23;20024;-80
2022/03/14 11:42:57;;;;;;;12.65;8.10;;;12.20;21.10;;;;;;6212459;23;19985;-80
2022/03/14 11:45:24;;;;;;;10.88;6.35;;;12.20;21.20;;;;;;6212654;23;19989;-79
2022/03/14 11:47:52;;;;;;;10.98;6.85;;;12.30;21.30;;;;;;6187344;23;20093;-80
2022/03/14 11:50:21;;;;;;;21.25;8.43;;;12.40;21.50;;;;;;6213909;23;20013;-80
2022/03/14 11:52:50;;;;;;;14.23;6.88;;;12.40;21.50;;;;;;6215011;23;19986;-80
2022/03/14 11:55:29;;;;;;;13.40;6.97;;;12.40;21.60;;;;;;6188334;23;20056;-80
2022/03/14 11:57:56;;;;;;;16.35;8.70;;;12.30;21.70;;;;;;6214628;23;20001;-81
2022/03/14 12:00:22;;;;;;;14.40;8.23;;;12.30;21.60;;;;;;6188893;23;19985;-81
2022/03/14 12:02:48;;;;;;;;;;;12.20;21.50;;;;;;6189159;23;20005;-80
2022/03/14 12:05:20;;;;;;;15.77;9.27;;;12.10;21.20;;;;;;6188261;23;19888;-80
2022/03/14 12:07:46;;;;;;;18.25;8.68;;;11.90;21.80;;;;;;6187840;23;20024;-81
2022/03/14 12:10:29;;;;;;;10.65;6.93;;;12.00;22.20;;;;;;6213699;23;20060;-80
2022/03/14 12:12:55;;;;;;;13.63;6.70;;;12.10;22.20;;;;;;6214594;23;19990;-81
2022/03/14 12:15:41;;;;;;;13.02;6.60;;;12.10;22.00;;;;;;6214517;23;20007;-80
2022/03/14 12:18:25;;;;;;;12.10;7.20;;;11.90;21.80;;;;;;6188855;23;19989;-80
2022/03/14 12:21:03;;;;;;;12.60;7.03;;;11.90;22.30;;;;;;6214081;23;19990;-80
2022/03/14 12:23:34;;;;;;;13.70;7.78;;;12.10;22.50;;;;;;6214697;23;20021;-79
2022/03/14 12:26:11;;;;;;;10.30;6.53;;;12.10;22.30;;;;;;6215935;23;19989;-79
2022/03/14 12:28:37;;;;;;;12.27;7.13;;;12.00;21.70;;;;;;6188547;23;20036;-81
2022/03/14 12:31:03;;;;;;;11.55;6.78;;;11.90;22.20;;;;;;6213815;23;20061;-80
2022/03/14 12:33:34;;;;;;;9.75;5.53;;;12.00;22.70;;;;;;6188469;23;20032;-79
2022/03/14 12:36:24;;;;;;;10.95;5.70;;;12.10;23.10;;;;;;6214384;23;19993;-80
2022/03/14 12:39:12;;;;;;;10.23;5.38;;;12.20;23.10;;;;;;6187806;23;20017;-80
2022/03/14 12:41:42;;;;;;;13.80;6.53;;;12.20;22.70;;;;;;6214786;23;19989;-76
2022/03/14 12:44:25;;;;;;;16.67;7.65;;;12.00;22.60;;;;;;6215735;23;19989;-77
2022/03/14 12:46:56;;;;;;;18.15;8.68;;;11.90;22.50;;;;;;6215507;23;19986;-78
2022/03/14 12:49:40;;;;;;;18.83;11.60;;;12.00;22.80;;;;;;6215481;23;20004;-79
2022/03/14 12:52:14;;;;;;;12.80;6.38;;;12.10;22.60;;;;;;6189828;23;20009;-76
2022/03/14 12:54:45;;;;;;;13.15;7.07;;;12.00;22.60;;;;;;6190028;23;20001;-79
2022/03/14 12:57:16;;;;;;;14.68;9.10;;;12.10;22.30;;;;;;6215459;23;20013;-77
2022/03/14 12:59:46;;;;;;;16.45;7.18;;;11.90;22.40;;;;;;6215293;23;19985;-80
2022/03/14 13:02:25;;;;;;;8.32;5.18;;;12.10;22.60;;;;;;6189068;23;20021;-80
2022/03/14 13:05:02;;;;;;;8.45;5.32;;;12.30;22.30;;;;;;6214205;23;19985;-80
2022/03/14 13:07:30;;;;;;;10.35;6.10;;;12.30;22.00;;;;;;6213942;23;19981;-79
2022/03/14 13:09:58;;;;;;;8.88;5.40;;;12.40;21.80;;;;;;6213815;23;20004;-80
2022/03/14 15:47:20;;;;;;;11.68;6.90;;;11.20;22.70;;;;;;6192803;23;20054;-78
2022/03/14 15:49:46;;;;;;;16.48;6.53;;;11.10;22.70;;;;;;6216444;23;20045;-76
2022/03/14 15:52:13;;;;;;;;;;;11.00;22.80;;;;;;6216862;23;20001;-77
2022/03/14 15:54:40;;;;;;;9.95;5.65;;;11.00;22.70;;;;;;6190908;23;19902;-76
2022/03/14 15:57:06;;;;;;;20.08;8.07;;;10.90;22.70;;;;;;6190612;23;20000;-79
2022/03/14 15:59:31;;;;;;;11.55;7.25;;;10.90;22.90;;;;;;6216048;23;20008;-76
2022/03/14 16:01:57;;;;;;;72.07;38.80;;;10.80;23.00;;;;;;6214480;23;20017;-80
2022/03/14 16:04:23;;;;;;;70.45;45.67;;;10.80;23.80;;;;;;6189189;23;19997;-80
2022/03/14 16:06:49;;;;;;;32.33;17.92;;;10.60;23.40;;;;;;6215071;23;19993;-80
2022/03/14 16:09:15;;;;;;;;;;;10.70;23.50;;;;;;6212663;23;20001;-80
2022/03/14 16:37:25;;;;;;;20.75;12.05;;;9.70;24.30;;;;;;6205941;23;20009;-78